sensor_id;sensor_type;location;lat;lon;timestamp;P1;durP1;ratioP1;P2;durP2;ratioP2
73158;SDS011;61370;48.594;10.202;2022-08-14T00:01:13;4.55;;;2.83;;
73158;SDS011;61370;48.594;10.202;2022-08-14T00:03:39;6.65;;;2.75;;
73158;SDS011;61370;48.594;10.202;2022-08-14T00:06:06;4.43;;;3.15;;
73158;SDS011;61370;48.594;10.202;2022-08-14T00:08:32;5.68;;;3.13;;
73158;SDS011;61370;48.594;10.202;2022-08-14T00:10:59;4.60;;;2.92;;
73158;SDS011;61370;48.594;10.202;2022-08-14T00:13:26;5.38;;;3.35;;
73158;SDS011;61370;48.594;10.202;2022-08-14T00:15:55;4.63;;;3.10;;
73158;SDS011;61370;48.594;10.202;2022-08-14T00:18:23;4.80;;;3.08;;
73158;SDS011;61370;48.594;10.202;2022-08-14T00:20:51;4.90;;;3.25;;
73158;SDS011;61370;48.594;10.202;2022-08-14T00:23:18;4.82;;;3.00;;
73158;SDS011;61370;48.594;10.202;2022-08-14T00:25:46;4.28;;;3.00;;
73158;SDS011;61370;48.594;10.202;2022-08-14T00:28:14;4.50;;;3.20;;
73158;SDS011;61370;48.594;10.202;2022-08-14T00:30:41;4.88;;;3.03;;
73158;SDS011;61370;48.594;10.202;2022-08-14T00:33:08;5.40;;;3.40;;
73158;SDS011;61370;48.594;10.202;2022-08-14T00:35:34;7.32;;;3.55;;
73158;SDS011;61370;48.594;10.202;2022-08-14T00:38:01;4.65;;;3.40;;
73158;SDS011;61370;48.594;10.202;2022-08-14T00:40:28;6.50;;;3.30;;
73158;SDS011;61370;48.594;10.202;2022-08-14T00:42:54;4.85;;;3.15;;
73158;SDS011;61370;48.594;10.202;2022-08-14T00:45:21;5.72;;;2.85;;
73158;SDS011;61370;48.594;10.202;2022-08-14T00:47:48;4.18;;;2.90;;
73158;SDS011;61370;48.594;10.202;2022-08-14T00:50:16;5.55;;;3.25;;
73158;SDS011;61370;48.594;10.202;2022-08-14T00:52:45;5.35;;;3.25;;
73158;SDS011;61370;48.594;10.202;2022-08-14T00:55:13;6.80;;;3.22;;
73158;SDS011;61370;48.594;10.202;2022-08-14T00:57:39;4.95;;;3.60;;
73158;SDS011;61370;48.594;10.202;2022-08-14T01:00:10;5.13;;;3.33;;
73158;SDS011;61370;48.594;10.202;2022-08-14T01:02:40;4.47;;;3.08;;
73158;SDS011;61370;48.594;10.202;2022-08-14T01:05:09;5.10;;;3.45;;
73158;SDS011;61370;48.594;10.202;2022-08-14T01:07:50;5.07;;;3.20;;
73158;SDS011;61370;48.594;10.202;2022-08-14T01:10:19;3.95;;;2.72;;
73158;SDS011;61370;48.594;10.202;2022-08-14T01:12:46;5.20;;;3.50;;
73158;SDS011;61370;48.594;10.202;2022-08-14T01:15:14;5.68;;;3.97;;
73158;SDS011;61370;48.594;10.202;2022-08-14T01:17:42;6.07;;;3.47;;
73158;SDS011;61370;48.594;10.202;2022-08-14T01:20:27;7.32;;;3.50;;
73158;SDS011;61370;48.594;10.202;2022-08-14T01:23:13;4.40;;;3.20;;
73158;SDS011;61370;48.594;10.202;2022-08-14T01:25:40;4.45;;;3.30;;
73158;SDS011;61370;48.594;10.202;2022-08-14T01:28:07;6.20;;;3.35;;
73158;SDS011;61370;48.594;10.202;2022-08-14T01:30:33;5.35;;;4.18;;
73158;SDS011;61370;48.594;10.202;2022-08-14T01:33:03;5.15;;;3.33;;
73158;SDS011;61370;48.594;10.202;2022-08-14T01:35:31;5.30;;;3.47;;
73158;SDS011;61370;48.594;10.202;2022-08-14T01:37:58;6.13;;;3.47;;
73158;SDS011;61370;48.594;10.202;2022-08-14T01:40:24;6.22;;;3.42;;
73158;SDS011;61370;48.594;10.202;2022-08-14T01:42:51;4.90;;;3.42;;
73158;SDS011;61370;48.594;10.202;2022-08-14T01:45:18;6.30;;;4.00;;
73158;SDS011;61370;48.594;10.202;2022-08-14T01:47:44;4.43;;;3.15;;
73158;SDS011;61370;48.594;10.202;2022-08-14T01:50:10;5.97;;;3.50;;
73158;SDS011;61370;48.594;10.202;2022-08-14T01:52:37;4.80;;;3.35;;
73158;SDS011;61370;48.594;10.202;2022-08-14T01:55:04;8.02;;;4.47;;
73158;SDS011;61370;48.594;10.202;2022-08-14T02:00:04;4.90;;;3.53;;
73158;SDS011;61370;48.594;10.202;2022-08-14T02:02:34;6.63;;;3.63;;
73158;SDS011;61370;48.594;10.202;2022-08-14T02:05:02;6.88;;;3.95;;
73158;SDS011;61370;48.594;10.202;2022-08-14T02:07:28;6.40;;;4.10;;
73158;SDS011;61370;48.594;10.202;2022-08-14T02:09:56;7.15;;;3.50;;
73158;SDS011;61370;48.594;10.202;2022-08-14T02:12:23;4.82;;;3.85;;
73158;SDS011;61370;48.594;10.202;2022-08-14T02:14:49;6.85;;;4.00;;
73158;SDS011;61370;48.594;10.202;2022-08-14T02:17:16;11.35;;;3.97;;
73158;SDS011;61370;48.594;10.202;2022-08-14T02:19:45;6.88;;;3.53;;
73158;SDS011;61370;48.594;10.202;2022-08-14T02:22:11;5.30;;;3.17;;
73158;SDS011;61370;48.594;10.202;2022-08-14T02:24:38;5.95;;;3.45;;
73158;SDS011;61370;48.594;10.202;2022-08-14T02:27:04;5.93;;;3.38;;
73158;SDS011;61370;48.594;10.202;2022-08-14T02:29:31;9.15;;;4.18;;
73158;SDS011;61370;48.594;10.202;2022-08-14T02:31:59;5.85;;;4.15;;
73158;SDS011;61370;48.594;10.202;2022-08-14T02:34:30;5.70;;;3.70;;
73158;SDS011;61370;48.594;10.202;2022-08-14T02:37:03;7.28;;;4.47;;
73158;SDS011;61370;48.594;10.202;2022-08-14T02:39:31;5.40;;;3.70;;
73158;SDS011;61370;48.594;10.202;2022-08-14T02:41:59;5.38;;;3.45;;
73158;SDS011;61370;48.594;10.202;2022-08-14T02:44:26;4.90;;;3.60;;
73158;SDS011;61370;48.594;10.202;2022-08-14T02:46:53;7.32;;;4.07;;
73158;SDS011;61370;48.594;10.202;2022-08-14T02:51:52;4.60;;;3.38;;
73158;SDS011;61370;48.594;10.202;2022-08-14T02:54:23;7.00;;;3.38;;
73158;SDS011;61370;48.594;10.202;2022-08-14T02:56:55;6.35;;;3.53;;
73158;SDS011;61370;48.594;10.202;2022-08-14T02:59:23;5.60;;;3.97;;
73158;SDS011;61370;48.594;10.202;2022-08-14T03:01:53;5.68;;;4.20;;
73158;SDS011;61370;48.594;10.202;2022-08-14T03:04:20;6.13;;;4.20;;
73158;SDS011;61370;48.594;10.202;2022-08-14T03:06:47;7.25;;;3.90;;
73158;SDS011;61370;48.594;10.202;2022-08-14T03:09:14;6.07;;;3.90;;
73158;SDS011;61370;48.594;10.202;2022-08-14T03:11:41;7.65;;;3.55;;
73158;SDS011;61370;48.594;10.202;2022-08-14T03:14:09;5.00;;;3.60;;
73158;SDS011;61370;48.594;10.202;2022-08-14T03:16:39;5.63;;;3.85;;
73158;SDS011;61370;48.594;10.202;2022-08-14T03:19:06;5.70;;;3.33;;
73158;SDS011;61370;48.594;10.202;2022-08-14T03:21:34;5.43;;;3.72;;
73158;SDS011;61370;48.594;10.202;2022-08-14T03:24:02;6.63;;;3.85;;
73158;SDS011;61370;48.594;10.202;2022-08-14T03:26:29;5.00;;;3.70;;
73158;SDS011;61370;48.594;10.202;2022-08-14T03:28:55;5.47;;;4.40;;
73158;SDS011;61370;48.594;10.202;2022-08-14T03:31:22;5.38;;;3.85;;
73158;SDS011;61370;48.594;10.202;2022-08-14T03:33:49;8.15;;;4.20;;
73158;SDS011;61370;48.594;10.202;2022-08-14T03:36:17;5.95;;;3.92;;
73158;SDS011;61370;48.594;10.202;2022-08-14T03:38:46;6.03;;;4.07;;
73158;SDS011;61370;48.594;10.202;2022-08-14T03:41:16;5.97;;;3.60;;
73158;SDS011;61370;48.594;10.202;2022-08-14T03:46:31;5.47;;;3.67;;
73158;SDS011;61370;48.594;10.202;2022-08-14T03:48:59;5.78;;;3.72;;
73158;SDS011;61370;48.594;10.202;2022-08-14T03:51:29;6.50;;;4.07;;
73158;SDS011;61370;48.594;10.202;2022-08-14T03:53:57;7.25;;;3.92;;
73158;SDS011;61370;48.594;10.202;2022-08-14T03:56:25;5.72;;;3.85;;
73158;SDS011;61370;48.594;10.202;2022-08-14T03:58:53;5.20;;;3.65;;
73158;SDS011;61370;48.594;10.202;2022-08-14T04:01:25;5.70;;;4.10;;
73158;SDS011;61370;48.594;10.202;2022-08-14T04:03:53;5.13;;;4.00;;
73158;SDS011;61370;48.594;10.202;2022-08-14T04:06:23;5.47;;;3.85;;
73158;SDS011;61370;48.594;10.202;2022-08-14T04:08:49;6.55;;;4.13;;
73158;SDS011;61370;48.594;10.202;2022-08-14T04:11:16;5.60;;;3.80;;
73158;SDS011;61370;48.594;10.202;2022-08-14T04:13:43;5.32;;;3.70;;
73158;SDS011;61370;48.594;10.202;2022-08-14T04:16:12;7.07;;;4.00;;
73158;SDS011;61370;48.594;10.202;2022-08-14T04:18:40;7.18;;;4.07;;
73158;SDS011;61370;48.594;10.202;2022-08-14T04:21:09;6.95;;;3.95;;
73158;SDS011;61370;48.594;10.202;2022-08-14T04:23:36;6.22;;;3.80;;
73158;SDS011;61370;48.594;10.202;2022-08-14T04:26:03;6.90;;;3.92;;
73158;SDS011;61370;48.594;10.202;2022-08-14T04:28:31;5.32;;;3.83;;
73158;SDS011;61370;48.594;10.202;2022-08-14T04:30:57;6.28;;;4.13;;
73158;SDS011;61370;48.594;10.202;2022-08-14T04:33:24;5.57;;;3.60;;
73158;SDS011;61370;48.594;10.202;2022-08-14T04:35:50;7.78;;;3.85;;
73158;SDS011;61370;48.594;10.202;2022-08-14T04:38:19;6.13;;;4.13;;
73158;SDS011;61370;48.594;10.202;2022-08-14T04:41:05;6.75;;;4.05;;
73158;SDS011;61370;48.594;10.202;2022-08-14T04:43:51;5.28;;;4.03;;
73158;SDS011;61370;48.594;10.202;2022-08-14T04:46:18;5.00;;;3.65;;
73158;SDS011;61370;48.594;10.202;2022-08-14T04:48:45;5.70;;;4.03;;
73158;SDS011;61370;48.594;10.202;2022-08-14T04:51:14;5.28;;;3.75;;
73158;SDS011;61370;48.594;10.202;2022-08-14T04:53:44;5.00;;;4.07;;
73158;SDS011;61370;48.594;10.202;2022-08-14T04:56:13;6.25;;;3.63;;
73158;SDS011;61370;48.594;10.202;2022-08-14T04:58:41;5.63;;;3.40;;
73158;SDS011;61370;48.594;10.202;2022-08-14T05:01:08;8.43;;;4.40;;
73158;SDS011;61370;48.594;10.202;2022-08-14T05:03:36;5.25;;;3.53;;
73158;SDS011;61370;48.594;10.202;2022-08-14T05:06:04;6.28;;;3.83;;
73158;SDS011;61370;48.594;10.202;2022-08-14T05:08:32;5.40;;;4.00;;
73158;SDS011;61370;48.594;10.202;2022-08-14T05:11:00;5.25;;;3.33;;
73158;SDS011;61370;48.594;10.202;2022-08-14T05:13:28;4.93;;;3.60;;
73158;SDS011;61370;48.594;10.202;2022-08-14T05:15:56;4.75;;;3.30;;
73158;SDS011;61370;48.594;10.202;2022-08-14T05:18:26;4.90;;;3.42;;
73158;SDS011;61370;48.594;10.202;2022-08-14T05:20:58;6.20;;;3.50;;
73158;SDS011;61370;48.594;10.202;2022-08-14T05:23:27;5.53;;;3.63;;
73158;SDS011;61370;48.594;10.202;2022-08-14T05:25:55;4.82;;;3.60;;
73158;SDS011;61370;48.594;10.202;2022-08-14T05:28:28;6.18;;;3.40;;
73158;SDS011;61370;48.594;10.202;2022-08-14T05:30:57;5.18;;;3.30;;
73158;SDS011;61370;48.594;10.202;2022-08-14T05:33:27;5.15;;;3.42;;
73158;SDS011;61370;48.594;10.202;2022-08-14T05:35:56;5.13;;;3.60;;
73158;SDS011;61370;48.594;10.202;2022-08-14T05:38:27;5.20;;;3.90;;
73158;SDS011;61370;48.594;10.202;2022-08-14T05:40:59;5.50;;;3.55;;
73158;SDS011;61370;48.594;10.202;2022-08-14T05:43:27;4.88;;;3.53;;
73158;SDS011;61370;48.594;10.202;2022-08-14T05:45:54;7.38;;;3.55;;
73158;SDS011;61370;48.594;10.202;2022-08-14T05:48:20;4.93;;;3.72;;
73158;SDS011;61370;48.594;10.202;2022-08-14T05:50:47;6.20;;;3.53;;
73158;SDS011;61370;48.594;10.202;2022-08-14T05:53:14;5.20;;;3.65;;
73158;SDS011;61370;48.594;10.202;2022-08-14T05:55:40;6.07;;;3.55;;
73158;SDS011;61370;48.594;10.202;2022-08-14T05:58:07;6.55;;;3.75;;
73158;SDS011;61370;48.594;10.202;2022-08-14T06:00:37;8.05;;;4.03;;
73158;SDS011;61370;48.594;10.202;2022-08-14T06:03:06;7.30;;;3.80;;
73158;SDS011;61370;48.594;10.202;2022-08-14T06:05:34;6.50;;;3.80;;
73158;SDS011;61370;48.594;10.202;2022-08-14T06:08:01;6.65;;;4.05;;
73158;SDS011;61370;48.594;10.202;2022-08-14T06:10:29;4.97;;;3.83;;
73158;SDS011;61370;48.594;10.202;2022-08-14T06:12:56;5.20;;;3.90;;
73158;SDS011;61370;48.594;10.202;2022-08-14T06:15:23;5.70;;;3.67;;
73158;SDS011;61370;48.594;10.202;2022-08-14T06:17:52;8.68;;;4.18;;
73158;SDS011;61370;48.594;10.202;2022-08-14T06:20:21;5.53;;;3.92;;
73158;SDS011;61370;48.594;10.202;2022-08-14T06:22:49;7.70;;;4.10;;
73158;SDS011;61370;48.594;10.202;2022-08-14T06:25:16;5.43;;;4.53;;
73158;SDS011;61370;48.594;10.202;2022-08-14T06:27:45;5.28;;;4.35;;
73158;SDS011;61370;48.594;10.202;2022-08-14T06:30:17;5.82;;;4.47;;
73158;SDS011;61370;48.594;10.202;2022-08-14T06:32:46;7.75;;;5.28;;
73158;SDS011;61370;48.594;10.202;2022-08-14T06:35:16;9.15;;;5.07;;
73158;SDS011;61370;48.594;10.202;2022-08-14T06:37:57;7.15;;;5.65;;
73158;SDS011;61370;48.594;10.202;2022-08-14T06:40:32;6.75;;;5.03;;
73158;SDS011;61370;48.594;10.202;2022-08-14T06:43:08;7.95;;;4.78;;
73158;SDS011;61370;48.594;10.202;2022-08-14T06:45:38;8.27;;;5.75;;
73158;SDS011;61370;48.594;10.202;2022-08-14T06:50:42;7.00;;;5.18;;
73158;SDS011;61370;48.594;10.202;2022-08-14T06:53:09;8.38;;;5.30;;
73158;SDS011;61370;48.594;10.202;2022-08-14T06:55:43;7.30;;;5.40;;
73158;SDS011;61370;48.594;10.202;2022-08-14T06:58:13;6.15;;;5.53;;
73158;SDS011;61370;48.594;10.202;2022-08-14T07:00:42;7.03;;;5.38;;
73158;SDS011;61370;48.594;10.202;2022-08-14T07:03:31;6.47;;;4.95;;
73158;SDS011;61370;48.594;10.202;2022-08-14T07:06:18;6.43;;;5.55;;
73158;SDS011;61370;48.594;10.202;2022-08-14T07:08:44;7.95;;;5.18;;
73158;SDS011;61370;48.594;10.202;2022-08-14T07:11:12;7.05;;;5.30;;
73158;SDS011;61370;48.594;10.202;2022-08-14T07:13:39;5.88;;;4.70;;
73158;SDS011;61370;48.594;10.202;2022-08-14T07:16:06;7.57;;;5.13;;
73158;SDS011;61370;48.594;10.202;2022-08-14T07:18:34;7.35;;;5.10;;
73158;SDS011;61370;48.594;10.202;2022-08-14T07:21:01;6.88;;;5.22;;
73158;SDS011;61370;48.594;10.202;2022-08-14T07:23:30;7.90;;;5.57;;
73158;SDS011;61370;48.594;10.202;2022-08-14T07:25:57;6.07;;;4.93;;
73158;SDS011;61370;48.594;10.202;2022-08-14T07:28:28;6.43;;;5.20;;
73158;SDS011;61370;48.594;10.202;2022-08-14T07:30:58;8.68;;;5.07;;
73158;SDS011;61370;48.594;10.202;2022-08-14T07:33:30;6.35;;;4.82;;
73158;SDS011;61370;48.594;10.202;2022-08-14T07:35:59;8.50;;;5.13;;
73158;SDS011;61370;48.594;10.202;2022-08-14T07:38:29;7.88;;;4.75;;
73158;SDS011;61370;48.594;10.202;2022-08-14T07:40:55;6.00;;;4.88;;
73158;SDS011;61370;48.594;10.202;2022-08-14T07:43:24;6.55;;;5.25;;
73158;SDS011;61370;48.594;10.202;2022-08-14T07:45:51;7.35;;;4.68;;
73158;SDS011;61370;48.594;10.202;2022-08-14T07:48:19;7.43;;;4.75;;
73158;SDS011;61370;48.594;10.202;2022-08-14T07:50:45;6.88;;;4.05;;
73158;SDS011;61370;48.594;10.202;2022-08-14T07:53:12;7.00;;;4.60;;
73158;SDS011;61370;48.594;10.202;2022-08-14T07:55:41;8.63;;;4.25;;
73158;SDS011;61370;48.594;10.202;2022-08-14T07:58:09;5.63;;;4.20;;
73158;SDS011;61370;48.594;10.202;2022-08-14T08:00:35;6.60;;;4.57;;
73158;SDS011;61370;48.594;10.202;2022-08-14T08:03:03;6.15;;;4.45;;
73158;SDS011;61370;48.594;10.202;2022-08-14T08:05:35;5.75;;;4.40;;
73158;SDS011;61370;48.594;10.202;2022-08-14T08:08:03;6.68;;;4.57;;
73158;SDS011;61370;48.594;10.202;2022-08-14T08:10:34;8.00;;;4.40;;
73158;SDS011;61370;48.594;10.202;2022-08-14T08:13:17;5.45;;;4.18;;
73158;SDS011;61370;48.594;10.202;2022-08-14T08:15:45;5.10;;;3.85;;
73158;SDS011;61370;48.594;10.202;2022-08-14T08:18:14;5.88;;;3.70;;
73158;SDS011;61370;48.594;10.202;2022-08-14T08:20:43;4.93;;;3.72;;
73158;SDS011;61370;48.594;10.202;2022-08-14T08:23:12;5.15;;;3.72;;
73158;SDS011;61370;48.594;10.202;2022-08-14T08:25:41;5.10;;;3.75;;
73158;SDS011;61370;48.594;10.202;2022-08-14T08:28:15;6.53;;;4.00;;
73158;SDS011;61370;48.594;10.202;2022-08-14T08:30:53;5.82;;;3.42;;
73158;SDS011;61370;48.594;10.202;2022-08-14T08:33:22;4.13;;;3.20;;
73158;SDS011;61370;48.594;10.202;2022-08-14T08:35:51;4.63;;;3.30;;
73158;SDS011;61370;48.594;10.202;2022-08-14T08:38:19;4.40;;;3.42;;
73158;SDS011;61370;48.594;10.202;2022-08-14T08:40:49;4.47;;;3.33;;
73158;SDS011;61370;48.594;10.202;2022-08-14T08:43:21;5.20;;;3.45;;
73158;SDS011;61370;48.594;10.202;2022-08-14T08:45:59;5.40;;;3.17;;
73158;SDS011;61370;48.594;10.202;2022-08-14T08:48:44;6.57;;;3.50;;
73158;SDS011;61370;48.594;10.202;2022-08-14T08:53:56;4.20;;;3.40;;
73158;SDS011;61370;48.594;10.202;2022-08-14T08:56:40;4.80;;;3.20;;
73158;SDS011;61370;48.594;10.202;2022-08-14T08:59:15;5.05;;;3.25;;
73158;SDS011;61370;48.594;10.202;2022-08-14T09:01:58;5.00;;;3.17;;
73158;SDS011;61370;48.594;10.202;2022-08-14T09:04:28;5.72;;;2.92;;
73158;SDS011;61370;48.594;10.202;2022-08-14T09:06:56;4.68;;;3.03;;
73158;SDS011;61370;48.594;10.202;2022-08-14T09:09:23;4.50;;;2.80;;
73158;SDS011;61370;48.594;10.202;2022-08-14T09:11:52;4.88;;;3.00;;
73158;SDS011;61370;48.594;10.202;2022-08-14T09:14:20;4.80;;;3.10;;
73158;SDS011;61370;48.594;10.202;2022-08-14T09:16:49;5.00;;;3.05;;
73158;SDS011;61370;48.594;10.202;2022-08-14T09:19:16;4.95;;;2.90;;
73158;SDS011;61370;48.594;10.202;2022-08-14T09:21:44;4.40;;;3.20;;
73158;SDS011;61370;48.594;10.202;2022-08-14T09:24:12;5.00;;;2.92;;
73158;SDS011;61370;48.594;10.202;2022-08-14T09:26:39;5.00;;;2.80;;
73158;SDS011;61370;48.594;10.202;2022-08-14T09:29:07;4.40;;;2.70;;
73158;SDS011;61370;48.594;10.202;2022-08-14T09:31:34;4.22;;;2.88;;
73158;SDS011;61370;48.594;10.202;2022-08-14T09:40:02;4.95;;;2.45;;
73158;SDS011;61370;48.594;10.202;2022-08-14T09:42:36;4.20;;;3.15;;
73158;SDS011;61370;48.594;10.202;2022-08-14T09:45:17;5.55;;;3.00;;
73158;SDS011;61370;48.594;10.202;2022-08-14T09:50:26;5.95;;;3.30;;
73158;SDS011;61370;48.594;10.202;2022-08-14T09:55:27;5.05;;;3.15;;
73158;SDS011;61370;48.594;10.202;2022-08-14T10:00:41;4.63;;;3.35;;
73158;SDS011;61370;48.594;10.202;2022-08-14T10:03:30;5.38;;;3.08;;
73158;SDS011;61370;48.594;10.202;2022-08-14T10:06:06;5.43;;;3.22;;
73158;SDS011;61370;48.594;10.202;2022-08-14T10:08:52;5.18;;;3.22;;
73158;SDS011;61370;48.594;10.202;2022-08-14T10:11:24;5.47;;;3.25;;
73158;SDS011;61370;48.594;10.202;2022-08-14T10:13:53;5.80;;;2.90;;
73158;SDS011;61370;48.594;10.202;2022-08-14T10:16:23;4.32;;;3.05;;
73158;SDS011;61370;48.594;10.202;2022-08-14T10:19:06;4.75;;;3.38;;
73158;SDS011;61370;48.594;10.202;2022-08-14T10:24:01;6.05;;;3.55;;
73158;SDS011;61370;48.594;10.202;2022-08-14T10:26:27;6.03;;;3.45;;
73158;SDS011;61370;48.594;10.202;2022-08-14T10:29:02;4.43;;;3.05;;
73158;SDS011;61370;48.594;10.202;2022-08-14T10:31:30;5.35;;;3.00;;
73158;SDS011;61370;48.594;10.202;2022-08-14T10:34:00;5.15;;;3.00;;
73158;SDS011;61370;48.594;10.202;2022-08-14T10:36:28;4.57;;;3.05;;
73158;SDS011;61370;48.594;10.202;2022-08-14T10:39:06;5.10;;;3.00;;
73158;SDS011;61370;48.594;10.202;2022-08-14T10:41:41;5.82;;;2.88;;
73158;SDS011;61370;48.594;10.202;2022-08-14T10:44:10;3.60;;;2.72;;
73158;SDS011;61370;48.594;10.202;2022-08-14T10:46:39;4.57;;;2.85;;
73158;SDS011;61370;48.594;10.202;2022-08-14T10:49:06;4.05;;;2.88;;
73158;SDS011;61370;48.594;10.202;2022-08-14T10:51:40;4.65;;;2.95;;
73158;SDS011;61370;48.594;10.202;2022-08-14T10:54:08;4.63;;;2.92;;
73158;SDS011;61370;48.594;10.202;2022-08-14T10:56:37;4.40;;;2.60;;
73158;SDS011;61370;48.594;10.202;2022-08-14T10:59:05;5.72;;;2.95;;
73158;SDS011;61370;48.594;10.202;2022-08-14T11:01:34;4.60;;;3.05;;
73158;SDS011;61370;48.594;10.202;2022-08-14T11:04:03;4.40;;;3.17;;
73158;SDS011;61370;48.594;10.202;2022-08-14T11:06:30;4.30;;;3.00;;
73158;SDS011;61370;48.594;10.202;2022-08-14T11:08:58;3.88;;;2.95;;
73158;SDS011;61370;48.594;10.202;2022-08-14T11:11:41;4.78;;;3.00;;
73158;SDS011;61370;48.594;10.202;2022-08-14T11:14:08;4.22;;;2.58;;
73158;SDS011;61370;48.594;10.202;2022-08-14T11:16:34;4.15;;;2.90;;
73158;SDS011;61370;48.594;10.202;2022-08-14T11:19:04;3.95;;;2.67;;
73158;SDS011;61370;48.594;10.202;2022-08-14T11:21:33;4.10;;;3.00;;
73158;SDS011;61370;48.594;10.202;2022-08-14T11:24:00;3.97;;;2.90;;
73158;SDS011;61370;48.594;10.202;2022-08-14T11:26:28;4.78;;;2.65;;
73158;SDS011;61370;48.594;10.202;2022-08-14T11:28:54;4.25;;;2.80;;
73158;SDS011;61370;48.594;10.202;2022-08-14T11:31:22;5.22;;;3.20;;
73158;SDS011;61370;48.594;10.202;2022-08-14T11:33:49;4.88;;;2.95;;
73158;SDS011;61370;48.594;10.202;2022-08-14T11:36:21;5.25;;;3.10;;
73158;SDS011;61370;48.594;10.202;2022-08-14T11:38:48;4.20;;;3.08;;
73158;SDS011;61370;48.594;10.202;2022-08-14T11:41:16;3.88;;;2.90;;
73158;SDS011;61370;48.594;10.202;2022-08-14T11:43:46;4.55;;;3.00;;
73158;SDS011;61370;48.594;10.202;2022-08-14T11:46:17;4.43;;;2.90;;
73158;SDS011;61370;48.594;10.202;2022-08-14T11:48:49;4.07;;;2.92;;
73158;SDS011;61370;48.594;10.202;2022-08-14T11:51:22;6.82;;;3.00;;
73158;SDS011;61370;48.594;10.202;2022-08-14T11:53:55;4.65;;;2.67;;
73158;SDS011;61370;48.594;10.202;2022-08-14T11:56:35;4.25;;;2.65;;
73158;SDS011;61370;48.594;10.202;2022-08-14T11:59:04;7.05;;;2.95;;
73158;SDS011;61370;48.594;10.202;2022-08-14T12:01:32;4.60;;;2.80;;
73158;SDS011;61370;48.594;10.202;2022-08-14T12:04:08;4.07;;;2.70;;
73158;SDS011;61370;48.594;10.202;2022-08-14T12:06:46;5.22;;;3.25;;
73158;SDS011;61370;48.594;10.202;2022-08-14T12:09:27;4.63;;;3.13;;
73158;SDS011;61370;48.594;10.202;2022-08-14T12:11:58;3.80;;;2.78;;
73158;SDS011;61370;48.594;10.202;2022-08-14T12:14:25;3.75;;;2.47;;
73158;SDS011;61370;48.594;10.202;2022-08-14T12:16:59;4.22;;;2.80;;
73158;SDS011;61370;48.594;10.202;2022-08-14T12:19:29;6.55;;;2.90;;
73158;SDS011;61370;48.594;10.202;2022-08-14T12:21:56;4.10;;;2.90;;
73158;SDS011;61370;48.594;10.202;2022-08-14T12:24:26;4.85;;;2.83;;
73158;SDS011;61370;48.594;10.202;2022-08-14T12:26:54;5.70;;;3.00;;
73158;SDS011;61370;48.594;10.202;2022-08-14T12:29:21;4.13;;;2.40;;
73158;SDS011;61370;48.594;10.202;2022-08-14T12:31:56;7.75;;;2.80;;
73158;SDS011;61370;48.594;10.202;2022-08-14T12:34:32;4.18;;;2.95;;
73158;SDS011;61370;48.594;10.202;2022-08-14T12:37:03;3.88;;;2.78;;
73158;SDS011;61370;48.594;10.202;2022-08-14T12:39:34;3.97;;;2.85;;
73158;SDS011;61370;48.594;10.202;2022-08-14T12:42:01;4.20;;;2.90;;
73158;SDS011;61370;48.594;10.202;2022-08-14T12:44:35;4.35;;;2.88;;
73158;SDS011;61370;48.594;10.202;2022-08-14T12:47:04;3.97;;;2.40;;
73158;SDS011;61370;48.594;10.202;2022-08-14T12:49:32;3.88;;;2.60;;
73158;SDS011;61370;48.594;10.202;2022-08-14T12:51:59;4.13;;;2.60;;
73158;SDS011;61370;48.594;10.202;2022-08-14T12:54:29;4.82;;;2.90;;
73158;SDS011;61370;48.594;10.202;2022-08-14T12:57:03;4.55;;;2.38;;
73158;SDS011;61370;48.594;10.202;2022-08-14T12:59:31;4.20;;;2.78;;
73158;SDS011;61370;48.594;10.202;2022-08-14T13:01:58;4.15;;;2.70;;
73158;SDS011;61370;48.594;10.202;2022-08-14T13:04:25;4.38;;;2.90;;
73158;SDS011;61370;48.594;10.202;2022-08-14T13:06:55;5.43;;;2.75;;
73158;SDS011;61370;48.594;10.202;2022-08-14T13:09:21;4.38;;;2.63;;
73158;SDS011;61370;48.594;10.202;2022-08-14T13:11:52;3.75;;;2.42;;
73158;SDS011;61370;48.594;10.202;2022-08-14T13:14:23;3.92;;;2.70;;
73158;SDS011;61370;48.594;10.202;2022-08-14T13:16:54;5.22;;;2.80;;
73158;SDS011;61370;48.594;10.202;2022-08-14T13:19:22;5.00;;;2.63;;
73158;SDS011;61370;48.594;10.202;2022-08-14T13:21:50;5.65;;;2.60;;
73158;SDS011;61370;48.594;10.202;2022-08-14T13:24:18;4.40;;;2.38;;
73158;SDS011;61370;48.594;10.202;2022-08-14T13:26:56;5.63;;;2.20;;
73158;SDS011;61370;48.594;10.202;2022-08-14T13:29:26;4.10;;;2.65;;
73158;SDS011;61370;48.594;10.202;2022-08-14T13:31:55;5.90;;;2.50;;
73158;SDS011;61370;48.594;10.202;2022-08-14T13:34:23;3.63;;;2.38;;
73158;SDS011;61370;48.594;10.202;2022-08-14T13:36:51;4.28;;;2.42;;
73158;SDS011;61370;48.594;10.202;2022-08-14T13:39:19;4.53;;;2.30;;
73158;SDS011;61370;48.594;10.202;2022-08-14T13:41:47;3.45;;;2.55;;
73158;SDS011;61370;48.594;10.202;2022-08-14T13:44:14;3.90;;;2.50;;
73158;SDS011;61370;48.594;10.202;2022-08-14T13:46:42;4.60;;;2.38;;
73158;SDS011;61370;48.594;10.202;2022-08-14T13:49:09;4.53;;;2.60;;
73158;SDS011;61370;48.594;10.202;2022-08-14T13:51:37;3.83;;;2.60;;
73158;SDS011;61370;48.594;10.202;2022-08-14T13:54:06;4.10;;;2.42;;
73158;SDS011;61370;48.594;10.202;2022-08-14T13:56:37;4.18;;;2.47;;
73158;SDS011;61370;48.594;10.202;2022-08-14T13:59:04;3.63;;;2.20;;
73158;SDS011;61370;48.594;10.202;2022-08-14T14:01:33;4.95;;;2.30;;
73158;SDS011;61370;48.594;10.202;2022-08-14T14:04:03;3.90;;;2.20;;
73158;SDS011;61370;48.594;10.202;2022-08-14T14:06:32;3.33;;;2.00;;
73158;SDS011;61370;48.594;10.202;2022-08-14T14:09:00;5.05;;;2.50;;
73158;SDS011;61370;48.594;10.202;2022-08-14T14:11:31;3.92;;;2.35;;
73158;SDS011;61370;48.594;10.202;2022-08-14T14:14:01;4.10;;;2.50;;
73158;SDS011;61370;48.594;10.202;2022-08-14T14:16:29;4.05;;;2.45;;
73158;SDS011;61370;48.594;10.202;2022-08-14T14:18:56;4.22;;;2.30;;
73158;SDS011;61370;48.594;10.202;2022-08-14T14:21:26;4.22;;;2.47;;
73158;SDS011;61370;48.594;10.202;2022-08-14T14:23:53;4.35;;;2.70;;
73158;SDS011;61370;48.594;10.202;2022-08-14T14:26:20;4.40;;;2.38;;
73158;SDS011;61370;48.594;10.202;2022-08-14T14:28:47;4.13;;;2.50;;
73158;SDS011;61370;48.594;10.202;2022-08-14T14:31:19;4.47;;;2.10;;
73158;SDS011;61370;48.594;10.202;2022-08-14T14:33:50;3.13;;;2.03;;
73158;SDS011;61370;48.594;10.202;2022-08-14T14:36:22;3.72;;;2.20;;
73158;SDS011;61370;48.594;10.202;2022-08-14T14:38:56;3.47;;;2.22;;
73158;SDS011;61370;48.594;10.202;2022-08-14T14:41:27;4.93;;;2.00;;
73158;SDS011;61370;48.594;10.202;2022-08-14T14:43:55;3.95;;;2.20;;
73158;SDS011;61370;48.594;10.202;2022-08-14T14:46:24;3.20;;;1.92;;
73158;SDS011;61370;48.594;10.202;2022-08-14T14:49:02;4.03;;;2.45;;
73158;SDS011;61370;48.594;10.202;2022-08-14T14:51:30;3.20;;;2.13;;
73158;SDS011;61370;48.594;10.202;2022-08-14T14:53:56;5.07;;;2.13;;
73158;SDS011;61370;48.594;10.202;2022-08-14T14:56:23;3.38;;;2.00;;
73158;SDS011;61370;48.594;10.202;2022-08-14T14:58:50;3.25;;;1.98;;
73158;SDS011;61370;48.594;10.202;2022-08-14T15:01:16;2.83;;;1.85;;
73158;SDS011;61370;48.594;10.202;2022-08-14T15:03:49;7.93;;;2.00;;
73158;SDS011;61370;48.594;10.202;2022-08-14T15:06:22;3.13;;;2.00;;
73158;SDS011;61370;48.594;10.202;2022-08-14T15:08:52;3.35;;;2.10;;
73158;SDS011;61370;48.594;10.202;2022-08-14T16:35:39;3.22;;;2.22;;
73158;SDS011;61370;48.594;10.202;2022-08-14T16:38:07;3.60;;;2.38;;
73158;SDS011;61370;48.594;10.202;2022-08-14T16:40:34;4.05;;;2.10;;